createdAt,value
2017-08-30T00:02:25.315Z,21.20
2017-08-30T00:04:52.944Z,21.20
2017-08-30T00:07:20.521Z,21.20
2017-08-30T00:09:48.193Z,21.20
2017-08-30T00:12:15.788Z,21.20
2017-08-30T00:14:43.352Z,21.30
2017-08-30T00:17:10.952Z,21.30
2017-08-30T00:19:39.287Z,21.30
2017-08-30T00:22:06.971Z,21.30
2017-08-30T00:24:46.499Z,21.40
2017-08-30T00:27:14.059Z,21.40
2017-08-30T00:29:41.667Z,21.40
2017-08-30T00:32:09.319Z,21.40
2017-08-30T00:34:36.918Z,21.40
2017-08-30T00:37:04.510Z,21.50
2017-08-30T00:39:32.837Z,21.50
2017-08-30T00:42:00.498Z,21.50
2017-08-30T00:44:28.099Z,21.50
2017-08-30T00:46:55.740Z,21.60
2017-08-30T00:49:23.310Z,21.60
2017-08-30T00:51:50.935Z,21.60
2017-08-30T00:54:18.560Z,21.50
2017-08-30T00:56:46.210Z,21.60
2017-08-30T00:59:13.789Z,21.60
2017-08-30T01:01:41.426Z,21.60
2017-08-30T01:04:09.735Z,21.60
2017-08-30T01:06:37.299Z,21.60
2017-08-30T01:09:05.172Z,21.60
2017-08-30T01:11:32.752Z,21.60
2017-08-30T01:14:00.367Z,21.60
2017-08-30T01:16:27.994Z,21.60
2017-08-30T01:18:56.440Z,21.60
2017-08-30T01:21:24.100Z,21.60
2017-08-30T01:23:51.744Z,21.60
2017-08-30T01:26:19.321Z,21.60
2017-08-30T01:28:46.930Z,21.60
2017-08-30T01:31:14.740Z,21.60
2017-08-30T01:33:42.355Z,21.60
2017-08-30T01:36:09.931Z,21.60
2017-08-30T01:38:37.576Z,21.70
2017-08-30T01:41:05.147Z,21.70
2017-08-30T01:43:32.769Z,21.80
2017-08-30T01:46:00.392Z,21.80
2017-08-30T01:48:27.987Z,21.80
2017-08-30T01:50:55.818Z,21.70
2017-08-30T01:53:23.449Z,21.70
2017-08-30T01:55:51.075Z,21.80
2017-08-30T01:58:18.666Z,21.70
2017-08-30T02:00:46.286Z,21.70
2017-08-30T02:03:13.876Z,21.60
2017-08-30T02:05:41.453Z,21.60
2017-08-30T02:08:09.123Z,21.60
2017-08-30T02:10:37.279Z,21.70
2017-08-30T02:13:04.897Z,21.70
2017-08-30T02:15:32.579Z,21.70
2017-08-30T02:18:00.159Z,21.70
2017-08-30T02:20:27.717Z,21.60
2017-08-30T02:22:55.382Z,21.60
2017-08-30T02:25:23.012Z,21.60
2017-08-30T02:27:50.628Z,21.60
2017-08-30T02:30:18.257Z,21.50
2017-08-30T02:32:45.854Z,21.60
2017-08-30T02:35:13.472Z,21.60
2017-08-30T02:37:41.132Z,21.70
2017-08-30T02:40:08.705Z,21.60
2017-08-30T02:42:36.293Z,21.60
2017-08-30T02:45:03.945Z,21.60
2017-08-30T02:47:31.545Z,21.60
2017-08-30T02:49:59.174Z,21.60
2017-08-30T02:52:27.098Z,21.60
2017-08-30T02:54:54.680Z,21.60
2017-08-30T02:57:22.809Z,21.60
2017-08-30T02:59:50.571Z,21.60
2017-08-30T03:02:18.178Z,21.60
2017-08-30T03:04:45.840Z,21.70
2017-08-30T03:07:13.749Z,21.70
2017-08-30T03:09:41.361Z,21.70
2017-08-30T03:12:08.972Z,21.80
2017-08-30T03:14:37.181Z,21.80
2017-08-30T03:17:04.760Z,21.80
2017-08-30T03:19:32.365Z,21.80
2017-08-30T03:21:59.962Z,21.80
2017-08-30T03:24:27.557Z,21.80
2017-08-30T03:26:55.585Z,21.70
2017-08-30T03:29:23.166Z,21.70
2017-08-30T03:31:50.764Z,21.60
2017-08-30T03:34:18.400Z,21.70
2017-08-30T03:36:46.467Z,21.70
2017-08-30T03:39:14.064Z,21.70
2017-08-30T03:41:43.812Z,21.70
2017-08-30T03:44:11.400Z,21.70
2017-08-30T03:46:38.983Z,21.60
2017-08-30T03:49:06.616Z,21.60
2017-08-30T03:51:34.233Z,21.50
2017-08-30T03:54:02.943Z,21.50
2017-08-30T03:56:31.108Z,21.50
2017-08-30T03:58:58.676Z,21.40
2017-08-30T04:01:26.604Z,21.40
2017-08-30T04:03:54.245Z,21.30
2017-08-30T04:06:21.921Z,21.30
2017-08-30T04:08:49.534Z,21.20
2017-08-30T04:11:17.194Z,21.20
2017-08-30T04:13:44.786Z,21.10
2017-08-30T04:16:12.420Z,21.00
2017-08-30T04:18:40.025Z,21.00
2017-08-30T04:21:07.636Z,21.00
2017-08-30T04:23:35.241Z,21.00
2017-08-30T04:26:02.872Z,21.00
2017-08-30T04:28:30.529Z,21.00
2017-08-30T04:30:58.144Z,20.90
2017-08-30T04:33:25.765Z,20.90
2017-08-30T04:35:53.401Z,20.80
2017-08-30T04:38:21.004Z,20.70
2017-08-30T04:40:49.459Z,20.80
2017-08-30T04:43:17.029Z,20.70
2017-08-30T04:45:44.605Z,20.70
2017-08-30T04:48:12.233Z,20.70
2017-08-30T04:50:39.906Z,20.60
2017-08-30T04:53:07.563Z,20.50
2017-08-30T04:55:35.190Z,20.50
2017-08-30T04:58:02.793Z,20.50
2017-08-30T05:00:30.450Z,20.40
2017-08-30T05:02:58.060Z,20.30
2017-08-30T05:05:25.761Z,20.30
2017-08-30T05:07:53.440Z,20.40
2017-08-30T05:10:21.026Z,20.30
2017-08-30T05:12:48.669Z,20.30
2017-08-30T05:15:16.284Z,20.40
2017-08-30T05:17:43.869Z,20.40
2017-08-30T05:20:11.492Z,20.40
2017-08-30T05:22:39.101Z,20.50
2017-08-30T05:25:06.736Z,20.50
2017-08-30T05:27:34.322Z,20.60
2017-08-30T05:30:01.957Z,20.60
2017-08-30T05:32:29.575Z,20.50
2017-08-30T05:34:57.174Z,20.60
2017-08-30T05:37:24.787Z,20.50
2017-08-30T05:39:52.428Z,20.50
2017-08-30T05:42:20.065Z,20.60
2017-08-30T05:44:47.677Z,20.60
2017-08-30T05:47:15.310Z,20.60
2017-08-30T05:49:43.379Z,20.60
2017-08-30T05:52:11.131Z,20.70
2017-08-30T05:54:38.736Z,20.80
2017-08-30T05:57:06.371Z,20.90
2017-08-30T05:59:34.022Z,21.00
2017-08-30T06:02:01.638Z,21.10
2017-08-30T06:04:29.453Z,21.20
2017-08-30T06:06:57.086Z,21.30
2017-08-30T06:09:25.631Z,21.50
2017-08-30T06:11:53.251Z,21.60
2017-08-30T06:14:20.895Z,21.70
2017-08-30T06:16:48.492Z,21.90
2017-08-30T06:19:16.085Z,22.00
2017-08-30T06:21:44.641Z,22.10
2017-08-30T06:24:12.329Z,22.10
2017-08-30T06:26:39.958Z,22.20
2017-08-30T06:29:07.622Z,22.10
2017-08-30T06:31:35.262Z,22.10
2017-08-30T06:34:03.328Z,22.00
2017-08-30T06:36:30.957Z,21.90
2017-08-30T06:38:58.576Z,21.90
2017-08-30T06:41:27.112Z,21.90
2017-08-30T06:43:54.791Z,21.90
2017-08-30T06:46:23.303Z,21.90
2017-08-30T06:48:50.908Z,21.90
2017-08-30T06:51:18.524Z,21.90
2017-08-30T06:53:46.142Z,22.00
2017-08-30T06:56:13.753Z,22.00
2017-08-30T06:58:41.471Z,21.90
2017-08-30T07:01:09.081Z,22.10
2017-08-30T07:03:36.700Z,22.10
2017-08-30T07:06:04.265Z,22.20
2017-08-30T07:08:32.015Z,22.20
2017-08-30T07:11:00.542Z,22.30
2017-08-30T07:13:28.131Z,22.30
2017-08-30T07:15:55.809Z,22.40
2017-08-30T07:18:23.536Z,22.30
2017-08-30T07:20:51.133Z,22.40
2017-08-30T07:23:18.914Z,22.40
2017-08-30T07:25:46.553Z,22.50
2017-08-30T07:28:14.189Z,22.60
2017-08-30T07:30:41.904Z,22.70
2017-08-30T07:33:09.650Z,22.80
2017-08-30T07:35:37.276Z,22.90
2017-08-30T07:38:05.645Z,23.00
2017-08-30T07:40:33.752Z,23.10
2017-08-30T07:43:01.441Z,23.10
2017-08-30T07:45:29.074Z,23.20
2017-08-30T07:47:56.713Z,23.10
2017-08-30T07:50:24.328Z,23.30
2017-08-30T07:52:51.950Z,23.50
2017-08-30T07:55:19.542Z,23.60
2017-08-30T07:57:47.153Z,23.80
2017-08-30T08:00:14.802Z,23.90
2017-08-30T08:02:42.483Z,23.90
2017-08-30T08:05:10.095Z,24.00
2017-08-30T08:07:37.727Z,24.10
2017-08-30T08:10:05.358Z,24.10
2017-08-30T08:12:32.953Z,24.20
2017-08-30T08:15:00.949Z,24.00
2017-08-30T08:17:28.602Z,24.00
2017-08-30T08:19:56.381Z,24.00
2017-08-30T08:22:24.941Z,24.00
2017-08-30T08:24:53.232Z,23.90
2017-08-30T08:27:20.834Z,24.00
2017-08-30T08:29:48.425Z,24.10
2017-08-30T08:32:16.788Z,24.20
2017-08-30T08:34:44.370Z,24.50
2017-08-30T08:37:13.228Z,24.60
2017-08-30T08:39:40.855Z,24.90
2017-08-30T08:42:08.487Z,25.00
2017-08-30T08:44:36.130Z,25.40
2017-08-30T08:47:03.710Z,25.60
2017-08-30T08:49:31.307Z,26.00
2017-08-30T08:51:59.507Z,26.30
2017-08-30T08:54:27.143Z,26.50
2017-08-30T08:56:54.729Z,26.80
2017-08-30T08:59:22.376Z,26.80
2017-08-30T09:01:50.006Z,26.80
2017-08-30T09:04:17.670Z,26.90
2017-08-30T09:06:45.267Z,26.90
2017-08-30T09:09:12.899Z,27.00
2017-08-30T09:11:40.536Z,27.00
2017-08-30T09:14:08.229Z,27.10
2017-08-30T09:16:35.873Z,27.20
2017-08-30T09:19:03.457Z,27.00
2017-08-30T09:21:31.129Z,27.00
2017-08-30T09:23:58.785Z,26.90
2017-08-30T09:26:26.414Z,26.80
2017-08-30T09:28:54.050Z,26.80
2017-08-30T09:31:21.640Z,26.80
2017-08-30T09:33:50.184Z,26.60
2017-08-30T09:36:17.814Z,26.30
2017-08-30T09:38:45.395Z,26.20
2017-08-30T09:41:12.986Z,26.10
2017-08-30T09:43:40.625Z,26.00
2017-08-30T09:46:08.212Z,26.00
2017-08-30T09:48:35.834Z,26.00
2017-08-30T09:51:03.433Z,26.00
2017-08-30T09:53:31.095Z,25.80
2017-08-30T09:55:58.733Z,25.60
2017-08-30T09:58:26.413Z,25.40
2017-08-30T10:00:54.028Z,25.30
2017-08-30T10:03:21.606Z,25.00
2017-08-30T10:05:49.239Z,24.70
2017-08-30T10:08:16.841Z,24.50
2017-08-30T10:10:44.451Z,24.40
2017-08-30T10:13:12.800Z,24.30
2017-08-30T10:15:40.409Z,24.30
2017-08-30T10:18:08.648Z,24.30
2017-08-30T10:20:36.261Z,24.10
2017-08-30T10:23:03.873Z,23.80
2017-08-30T10:25:31.474Z,23.60
2017-08-30T10:27:59.088Z,23.40
2017-08-30T10:30:26.701Z,23.30
2017-08-30T10:32:54.325Z,23.30
2017-08-30T10:35:21.937Z,23.30
2017-08-30T10:37:49.537Z,23.30
2017-08-30T10:40:17.159Z,23.20
2017-08-30T10:42:44.777Z,23.20
2017-08-30T10:45:12.725Z,23.20
2017-08-30T10:47:40.374Z,23.10
2017-08-30T10:50:08.045Z,23.10
2017-08-30T10:52:35.646Z,23.10
2017-08-30T10:55:03.881Z,23.20
2017-08-30T10:57:31.467Z,23.30
2017-08-30T10:59:59.097Z,23.40
2017-08-30T11:02:27.524Z,23.50
2017-08-30T11:04:55.144Z,23.60
2017-08-30T11:07:22.767Z,23.70
2017-08-30T11:09:50.450Z,23.60
2017-08-30T11:12:18.091Z,23.80
2017-08-30T11:14:45.659Z,23.90
2017-08-30T11:17:13.772Z,24.00
2017-08-30T11:19:41.391Z,24.20
2017-08-30T11:22:08.988Z,24.40
2017-08-30T11:24:37.359Z,24.60
2017-08-30T11:27:04.996Z,24.70
2017-08-30T11:29:32.613Z,25.00
2017-08-30T11:32:01.073Z,25.20
2017-08-30T11:34:28.691Z,25.40
2017-08-30T11:36:56.266Z,25.70
2017-08-30T11:39:24.042Z,25.90
2017-08-30T11:41:51.656Z,26.20
2017-08-30T11:44:19.272Z,26.40
2017-08-30T11:46:47.861Z,26.40
2017-08-30T11:49:15.572Z,26.50
2017-08-30T11:51:43.248Z,26.60
2017-08-30T11:54:11.770Z,26.80
2017-08-30T11:56:39.355Z,26.70
2017-08-30T11:59:06.935Z,27.00
2017-08-30T12:01:34.730Z,27.20
2017-08-30T12:04:02.286Z,27.40
2017-08-30T12:06:30.774Z,27.60
2017-08-30T12:08:58.837Z,27.70
2017-08-30T12:11:26.450Z,27.80
2017-08-30T12:13:54.097Z,28.00
2017-08-30T12:16:21.737Z,28.10
2017-08-30T12:18:49.363Z,28.00
2017-08-30T12:21:17.859Z,28.20
2017-08-30T12:23:45.467Z,28.30
2017-08-30T12:26:13.059Z,28.30
2017-08-30T12:28:40.670Z,28.40
2017-08-30T12:31:08.314Z,28.40
2017-08-30T12:33:36.277Z,28.40
2017-08-30T12:36:03.867Z,28.20
2017-08-30T12:38:37.134Z,28.30
2017-08-30T12:41:04.830Z,28.10
2017-08-30T12:43:32.504Z,28.00
2017-08-30T12:46:00.249Z,27.90
2017-08-30T12:48:28.873Z,27.90
2017-08-30T12:50:57.005Z,27.90
2017-08-30T12:53:25.016Z,27.90
2017-08-30T12:55:52.589Z,27.90
2017-08-30T12:58:20.170Z,28.00
2017-08-30T13:00:47.874Z,28.00
2017-08-30T13:03:15.503Z,27.90
2017-08-30T13:05:43.157Z,27.60
2017-08-30T13:08:10.814Z,27.80
2017-08-30T13:10:38.444Z,27.90
2017-08-30T13:13:06.028Z,28.20
2017-08-30T13:15:33.701Z,28.20
2017-08-30T13:18:01.306Z,28.20
2017-08-30T13:20:28.921Z,28.30
2017-08-30T13:22:56.916Z,28.40
2017-08-30T13:25:24.506Z,28.60
2017-08-30T13:27:52.099Z,28.60
2017-08-30T13:30:20.226Z,28.40
2017-08-30T13:32:47.827Z,28.40
2017-08-30T13:35:15.443Z,28.40
2017-08-30T13:37:43.072Z,28.50
2017-08-30T13:40:10.696Z,28.50
2017-08-30T13:42:38.272Z,28.50
2017-08-30T13:45:05.912Z,28.50
2017-08-30T13:47:33.508Z,28.50
2017-08-30T13:50:02.111Z,28.50
2017-08-30T13:52:29.696Z,28.40
2017-08-30T13:54:57.344Z,28.40
2017-08-30T13:57:25.781Z,28.40
2017-08-30T13:59:53.413Z,28.10
2017-08-30T14:02:21.057Z,28.10
2017-08-30T14:04:49.584Z,28.30
2017-08-30T14:07:17.194Z,28.40
2017-08-30T14:09:44.779Z,28.40
2017-08-30T14:12:12.390Z,28.50
2017-08-30T14:14:40.069Z,28.40
2017-08-30T14:17:07.664Z,28.30
2017-08-30T14:19:35.261Z,28.10
2017-08-30T14:22:02.937Z,28.20
2017-08-30T14:24:30.653Z,28.30
2017-08-30T14:26:58.853Z,28.50
2017-08-30T14:29:26.521Z,28.40
2017-08-30T14:31:54.128Z,28.40
2017-08-30T14:34:21.720Z,28.20
2017-08-30T14:36:49.344Z,28.10
2017-08-30T14:39:16.988Z,27.90
2017-08-30T14:41:44.610Z,27.80
2017-08-30T14:44:13.140Z,27.70
2017-08-30T14:46:40.779Z,27.60
2017-08-30T14:49:08.426Z,27.30
2017-08-30T14:51:36.068Z,27.30
2017-08-30T14:54:03.686Z,27.00
2017-08-30T14:56:31.386Z,26.90
2017-08-30T14:58:59.066Z,26.90
2017-08-30T15:01:26.693Z,26.70
2017-08-30T15:03:54.265Z,26.80
2017-08-30T15:06:21.896Z,26.70
2017-08-30T15:08:49.506Z,26.60
2017-08-30T15:11:17.144Z,26.70
2017-08-30T15:13:44.814Z,26.70
2017-08-30T15:16:12.420Z,26.60
2017-08-30T15:18:40.055Z,26.60
2017-08-30T15:21:07.722Z,26.70
2017-08-30T15:23:36.683Z,26.70
2017-08-30T15:26:04.327Z,26.70
2017-08-30T15:28:31.997Z,26.90
2017-08-30T15:30:59.588Z,27.00
2017-08-30T15:33:27.352Z,27.20
2017-08-30T15:35:55.007Z,27.00
2017-08-30T15:38:22.622Z,26.80
2017-08-30T15:40:50.223Z,26.90
2017-08-30T15:43:17.868Z,26.90
2017-08-30T15:45:46.570Z,27.00
2017-08-30T15:48:14.217Z,26.90
2017-08-30T15:50:41.849Z,26.90
2017-08-30T15:53:09.435Z,26.80
2017-08-30T15:55:37.028Z,26.60
2017-08-30T15:58:04.703Z,26.50
2017-08-30T16:00:32.305Z,26.40
2017-08-30T16:02:59.909Z,26.40
2017-08-30T16:05:27.571Z,26.30
2017-08-30T16:07:55.160Z,26.20
2017-08-30T16:10:22.754Z,26.10
2017-08-30T16:12:50.404Z,26.20
2017-08-30T16:15:18.024Z,26.10
2017-08-30T16:17:45.635Z,26.00
2017-08-30T16:20:13.311Z,26.10
2017-08-30T16:22:40.963Z,26.00
2017-08-30T16:25:08.567Z,26.00
2017-08-30T16:27:37.125Z,25.80
2017-08-30T16:30:05.313Z,25.70
2017-08-30T16:32:33.491Z,25.70
2017-08-30T16:35:01.112Z,25.80
2017-08-30T16:37:28.778Z,25.90
2017-08-30T16:39:56.377Z,25.80
2017-08-30T16:42:24.045Z,25.90
2017-08-30T16:44:52.136Z,25.90
2017-08-30T16:47:19.777Z,26.00
2017-08-30T16:49:47.413Z,25.90
2017-08-30T16:52:15.010Z,25.90
2017-08-30T16:54:42.631Z,25.90
2017-08-30T16:57:10.322Z,26.00
2017-08-30T16:59:37.916Z,26.00
2017-08-30T17:02:05.495Z,25.80
2017-08-30T17:04:33.134Z,25.70
2017-08-30T17:07:00.789Z,25.80
2017-08-30T17:09:28.406Z,25.80
2017-08-30T17:11:57.087Z,25.70
2017-08-30T17:14:24.926Z,25.70
2017-08-30T17:16:52.575Z,25.60
2017-08-30T17:19:21.390Z,25.50
2017-08-30T17:21:49.012Z,25.60
2017-08-30T17:24:16.598Z,25.40
2017-08-30T17:26:44.270Z,25.40
2017-08-30T17:29:11.954Z,25.30
2017-08-30T17:31:39.557Z,25.40
2017-08-30T17:34:07.245Z,25.40
2017-08-30T17:36:34.855Z,25.30
2017-08-30T17:39:02.478Z,25.20
2017-08-30T17:41:30.128Z,25.30
2017-08-30T17:43:57.746Z,25.30
2017-08-30T17:46:25.330Z,25.30
2017-08-30T17:48:53.074Z,25.30
2017-08-30T17:51:20.672Z,25.20
2017-08-30T17:53:48.270Z,25.20
2017-08-30T17:56:15.903Z,25.20
2017-08-30T17:58:43.492Z,25.20
2017-08-30T18:01:11.108Z,25.20
2017-08-30T18:03:38.750Z,25.30
2017-08-30T18:06:06.372Z,25.30
2017-08-30T18:08:33.994Z,25.30
2017-08-30T18:11:01.609Z,25.20
2017-08-30T18:13:29.197Z,25.20
2017-08-30T18:15:56.803Z,25.20
2017-08-30T18:18:24.466Z,25.20
2017-08-30T18:20:52.111Z,25.10
2017-08-30T18:23:19.722Z,25.00
2017-08-30T18:25:47.326Z,24.80
2017-08-30T18:28:14.930Z,24.80
2017-08-30T18:30:42.583Z,24.70
2017-08-30T18:33:10.188Z,24.60
2017-08-30T18:35:37.811Z,24.60
2017-08-30T18:38:05.495Z,24.60
2017-08-30T18:40:33.120Z,24.60
2017-08-30T18:43:00.755Z,24.50
2017-08-30T18:45:28.362Z,24.50
2017-08-30T18:47:55.982Z,24.50
2017-08-30T18:50:23.710Z,24.50
2017-08-30T18:52:51.369Z,24.50
2017-08-30T18:55:18.961Z,24.40
2017-08-30T18:57:46.623Z,24.30
2017-08-30T19:00:14.258Z,24.30
2017-08-30T19:02:41.866Z,24.30
2017-08-30T19:05:09.474Z,24.20
2017-08-30T19:07:37.806Z,24.20
2017-08-30T19:10:05.544Z,24.20
2017-08-30T19:12:33.261Z,24.20
2017-08-30T19:15:00.899Z,24.20
2017-08-30T19:17:28.597Z,24.10
2017-08-30T19:19:56.222Z,24.10
2017-08-30T19:22:23.839Z,24.10
2017-08-30T19:24:51.499Z,24.10
2017-08-30T19:27:19.122Z,24.10
2017-08-30T19:29:46.738Z,24.10
2017-08-30T19:32:14.371Z,24.10
2017-08-30T19:34:41.997Z,24.00
2017-08-30T19:37:09.598Z,24.00
2017-08-30T19:39:37.284Z,24.00
2017-08-30T19:42:04.886Z,24.00
2017-08-30T19:44:32.508Z,23.90
2017-08-30T19:47:00.139Z,23.90
2017-08-30T19:49:28.409Z,23.50
2017-08-30T19:51:56.013Z,22.60
2017-08-30T19:54:24.426Z,22.00
2017-08-30T19:56:52.043Z,21.60
2017-08-30T19:59:19.606Z,21.40
2017-08-30T20:01:47.209Z,21.00
2017-08-30T20:04:14.870Z,20.80
2017-08-30T20:06:42.481Z,20.60
2017-08-30T20:09:10.106Z,20.60
2017-08-30T20:11:37.711Z,20.60
2017-08-30T20:14:05.345Z,20.50
2017-08-30T20:16:32.965Z,20.50
2017-08-30T20:19:00.588Z,20.50
2017-08-30T20:21:28.395Z,20.50
2017-08-30T20:23:55.997Z,20.40
2017-08-30T20:26:23.651Z,20.40
2017-08-30T20:28:51.292Z,20.40
2017-08-30T20:31:19.469Z,20.30
2017-08-30T20:33:47.106Z,20.40
2017-08-30T20:36:14.791Z,20.50
2017-08-30T20:38:42.419Z,20.50
2017-08-30T20:41:10.003Z,20.50
2017-08-30T20:43:37.626Z,20.40
2017-08-30T20:46:05.238Z,20.40
2017-08-30T20:48:32.814Z,20.30
2017-08-30T20:51:00.443Z,20.20
2017-08-30T20:53:28.058Z,20.20
2017-08-30T20:55:55.664Z,20.20
2017-08-30T20:58:23.302Z,20.20
2017-08-30T21:00:51.101Z,20.20
2017-08-30T21:03:19.433Z,20.30
2017-08-30T21:05:47.167Z,20.40
2017-08-30T21:08:14.877Z,20.40
2017-08-30T21:10:42.509Z,20.40
2017-08-30T21:13:10.158Z,20.50
2017-08-30T21:15:37.798Z,20.50
2017-08-30T21:18:05.405Z,20.50
2017-08-30T21:20:33.084Z,20.50
2017-08-30T21:23:00.756Z,20.50
2017-08-30T21:25:28.385Z,20.40
2017-08-30T21:27:55.997Z,20.30
2017-08-30T21:30:23.950Z,20.40
2017-08-30T21:32:51.598Z,20.40
2017-08-30T21:35:19.224Z,20.40
2017-08-30T21:37:46.881Z,20.50
2017-08-30T21:40:14.486Z,20.40
2017-08-30T21:42:42.089Z,20.40
2017-08-30T21:45:09.763Z,20.40
2017-08-30T21:47:38.244Z,20.40
2017-08-30T21:50:05.914Z,20.40
2017-08-30T21:52:33.566Z,20.30
2017-08-30T21:55:01.153Z,20.30
2017-08-30T21:57:28.776Z,20.20
2017-08-30T21:59:56.379Z,20.20
2017-08-30T22:02:23.965Z,20.10
2017-08-30T22:04:51.573Z,20.10
2017-08-30T22:07:19.206Z,20.00
2017-08-30T22:09:46.794Z,20.00
2017-08-30T22:12:14.382Z,19.90
2017-08-30T22:14:42.015Z,19.90
2017-08-30T22:17:09.590Z,19.90
2017-08-30T22:19:37.194Z,19.80
2017-08-30T22:22:04.931Z,19.70
2017-08-30T22:24:32.591Z,19.70
2017-08-30T22:27:00.219Z,19.70
2017-08-30T22:29:27.816Z,19.60
2017-08-30T22:31:55.407Z,19.50
2017-08-30T22:34:23.072Z,19.50
2017-08-30T22:36:50.725Z,19.40
2017-08-30T22:39:18.386Z,19.30
2017-08-30T22:41:47.443Z,19.30
2017-08-30T22:44:15.054Z,19.30
2017-08-30T22:46:42.681Z,19.30
2017-08-30T22:49:11.196Z,19.30
2017-08-30T22:51:38.865Z,19.30
2017-08-30T22:54:06.474Z,19.20
2017-08-30T22:56:34.203Z,19.20
2017-08-30T22:59:01.867Z,19.20
2017-08-30T23:01:29.492Z,19.20
2017-08-30T23:03:57.116Z,19.30
2017-08-30T23:06:24.788Z,19.30
2017-08-30T23:08:52.413Z,19.30
2017-08-30T23:11:20.027Z,19.10
2017-08-30T23:13:47.705Z,19.10
2017-08-30T23:16:15.354Z,19.10
2017-08-30T23:18:43.006Z,19.00
2017-08-30T23:21:10.640Z,18.90
2017-08-30T23:23:38.234Z,19.00
2017-08-30T23:26:05.825Z,18.90
2017-08-30T23:28:34.243Z,18.90
2017-08-30T23:31:01.853Z,18.80
2017-08-30T23:33:29.539Z,18.90
2017-08-30T23:35:58.087Z,18.90
2017-08-30T23:38:25.688Z,19.00
2017-08-30T23:40:53.287Z,18.90
2017-08-30T23:43:20.900Z,18.80
2017-08-30T23:45:48.505Z,18.80
2017-08-30T23:48:16.100Z,18.90
2017-08-30T23:50:43.795Z,18.90
2017-08-30T23:53:11.362Z,19.00
2017-08-30T23:55:39.026Z,18.90
2017-08-30T23:58:06.639Z,19.00
